Time;durP1;ratioP1;P1;durP2;ratioP2;P2;SDS_P1;SDS_P2;PMS_P1;PMS_P2;Temp;Humidity;BMP_temperature;BMP_pressure;BME280_temperature;BME280_humidity;BME280_pressure;Samples;Min_cycle;Max_cycle;Signal;HPM_P1;HPM_P2
2024/04/19 00:00:44;;;;;;;8.00;1.48;;;;;;;-146.27;86.10;43196.63;5474942;26;20047;-72
2024/04/19 00:03:09;;;;;;;7.57;1.38;;;;;;;-146.27;86.22;43210.53;5486737;26;20012;-71
2024/04/19 00:05:40;;;;;;;3.75;1.38;;;;;;;-146.27;87.30;43170.75;5502221;25;20005;-71
2024/04/19 00:08:06;;;;;;;5.07;1.17;;;;;;;-146.27;86.80;43148.88;5482172;25;20009;-70
2024/04/19 00:10:34;;;;;;;8.05;1.58;;;;;;;-146.27;87.57;43144.91;5481858;26;20002;-70
2024/04/19 00:13:00;;;;;;;11.20;2.03;;;;;;;-146.27;88.08;43172.75;5473132;26;20006;-71
2024/04/19 00:15:25;;;;;;;9.35;1.85;;;;;;;-146.27;88.22;43113.06;5450693;26;20014;-70
2024/04/19 00:17:50;;;;;;;9.55;2.13;;;;;;;-146.27;88.23;43119.03;5449222;26;19991;-70
2024/04/19 00:20:17;;;;;;;11.70;1.92;;;;;;;-146.27;88.39;43095.16;5458772;26;19999;-70
2024/04/19 00:22:42;;;;;;;8.45;1.88;;;;;;;-146.27;88.26;43047.44;5447904;26;20002;-69
2024/04/19 00:25:07;;;;;;;8.20;1.65;;;;;;;-146.27;88.20;43013.63;5466506;26;19994;-66
2024/04/19 00:27:33;;;;;;;8.15;2.03;;;;;;;-146.27;88.32;43029.53;5467239;26;20006;-68
2024/04/19 00:29:58;;;;;;;7.03;1.60;;;;;;;-146.27;88.58;43053.41;5461423;26;19999;-67
2024/04/19 00:32:24;;;;;;;5.85;1.60;;;;;;;-146.27;89.10;42995.72;5477594;26;20074;-67
2024/04/19 00:34:49;;;;;;;5.47;2.05;;;;;;;-146.27;89.26;42961.91;5475907;26;20038;-66
2024/04/19 00:37:14;;;;;;;7.35;1.92;;;;;;;-146.27;89.38;42959.91;5466473;26;20002;-67
2024/04/19 00:39:40;;;;;;;8.68;1.70;;;;;;;-146.27;88.83;42969.84;5474486;26;20010;-67
2024/04/19 00:42:05;;;;;;;9.18;1.40;;;;;;;-146.27;88.81;42965.88;5464050;26;20350;-66
2024/04/19 00:44:32;;;;;;;7.60;1.67;;;;;;;-146.27;89.10;42953.94;5476847;26;20454;-67
2024/04/19 00:46:58;;;;;;;5.82;1.85;;;;;;;-146.27;89.25;42924.13;5467079;26;19998;-66
2024/04/19 00:49:24;;;;;;;8.95;1.95;;;;;;;-146.27;88.88;42882.34;5474189;26;19999;-66
2024/04/19 00:51:50;;;;;;;7.05;2.30;;;;;;;-146.27;89.31;42946.00;5451757;26;20003;-66
2024/04/19 00:54:16;;;;;;;6.45;1.75;;;;;;;-146.27;89.66;42991.75;5451265;26;20010;-66
2024/04/19 00:56:42;;;;;;;8.95;2.47;;;;;;;-146.27;89.66;42878.38;5457358;26;20027;-67
2024/04/19 00:59:11;;;;;;;13.75;2.20;;;;;;;-146.27;88.79;42908.19;5450929;26;20084;-69
2024/04/19 01:01:36;;;;;;;9.07;1.50;;;;;;;-146.27;88.73;42882.34;5458422;26;20044;-66
2024/04/19 01:04:02;;;;;;;9.73;2.20;;;;;;;-146.27;90.07;42918.16;5485760;26;20338;-68
2024/04/19 01:06:27;;;;;;;8.38;1.80;;;;;;;-146.27;89.56;42842.56;5452852;26;20463;-65
2024/04/19 01:08:53;;;;;;;4.65;2.28;;;;;;;-146.27;90.17;42842.56;5480462;26;19994;-68
2024/04/19 01:11:18;;;;;;;7.30;1.75;;;;;;;-146.27;89.41;42810.75;5515227;25;19994;-66
2024/04/19 01:13:44;;;;;;;9.73;2.00;;;;;;;-146.27;90.19;42806.75;5481158;26;20029;-67
2024/04/19 01:16:09;;;;;;;4.63;1.88;;;;;;;-146.27;90.27;42768.97;5452674;26;20005;-68
2024/04/19 01:18:34;;;;;;;17.63;2.13;;;;;;;-146.27;90.75;42763.00;5450939;26;20005;-66
2024/04/19 01:21:00;;;;;;;12.80;2.67;;;;;;;-146.27;91.04;42761.03;5450912;26;19991;-66
2024/04/19 01:23:27;;;;;;;11.30;2.55;;;;;;;-146.27;91.24;42689.41;5451822;26;20009;-66
2024/04/19 01:25:53;;;;;;;15.88;2.72;;;;;;;-146.27;91.76;42733.19;5468250;26;20048;-67
2024/04/19 01:28:19;;;;;;;9.23;2.25;;;;;;;-146.27;91.73;42651.63;5450119;26;20479;-66
2024/04/19 01:30:45;;;;;;;9.52;2.72;;;;;;;-146.27;91.44;42643.69;5451793;26;20002;-66
2024/04/19 01:33:11;;;;;;;5.53;2.33;;;;;;;-146.27;91.01;42639.69;5473287;26;19998;-68
2024/04/19 01:35:37;;;;;;;10.02;2.80;;;;;;;-146.27;92.23;42641.69;5469749;26;19991;-67
2024/04/19 01:38:02;;;;;;;8.48;2.60;;;;;;;-146.27;92.14;42631.75;5450304;26;20069;-67
2024/04/19 01:40:28;;;;;;;10.10;3.03;;;;;;;-146.27;92.86;42611.84;5449581;26;20014;-68
2024/04/19 01:42:54;;;;;;;6.45;2.30;;;;;;;-146.27;92.60;42564.13;5450484;26;20007;-67
2024/04/19 01:45:20;;;;;;;13.07;2.53;;;;;;;-146.27;93.44;42526.34;5449132;26;19998;-67
2024/04/19 01:47:46;;;;;;;13.23;3.22;;;;;;;-146.27;92.90;42512.41;5448761;26;20011;-66
2024/04/19 01:50:11;;;;;;;13.23;2.90;;;;;;;-146.27;93.34;42500.47;5449675;26;20007;-66
2024/04/19 01:52:37;;;;;;;5.18;2.28;;;;;;;-146.27;93.17;42512.41;5450320;26;20360;-67
2024/04/19 01:55:03;;;;;;;10.95;2.80;;;;;;;-146.27;92.26;42456.72;5449708;26;20320;-65
2024/04/19 01:57:29;;;;;;;14.68;2.60;;;;;;;-146.27;92.65;42494.53;5450340;26;19995;-67
2024/04/19 01:59:54;;;;;;;5.50;3.15;;;;;;;-146.27;92.48;42464.69;5450156;26;20440;-67
2024/04/19 02:02:20;;;;;;;13.85;2.60;;;;;;;-146.27;93.14;42432.88;5449479;26;19999;-68
2024/04/19 02:04:47;;;;;;;10.63;2.85;;;;;;;-146.27;93.36;42436.84;5450087;26;20028;-67
2024/04/19 02:07:13;;;;;;;18.30;3.40;;;;;;;-146.27;93.09;42409.00;5473909;26;20005;-67
2024/04/19 02:09:38;;;;;;;7.35;2.55;;;;;;;-146.27;92.97;42377.19;5468603;26;20600;-69
2024/04/19 02:12:04;;;;;;;9.48;3.13;;;;;;;-146.27;93.02;42377.19;5456376;26;19999;-67
2024/04/19 02:14:33;;;;;;;7.20;2.72;;;;;;;-146.27;93.57;42416.97;5456630;26;20072;-68
2024/04/19 02:16:58;;;;;;;8.63;2.40;;;;;;;-146.27;93.68;42424.91;5453238;26;19991;-67
2024/04/19 02:19:24;;;;;;;12.15;2.97;;;;;;;-146.27;93.33;42329.47;5466870;26;19998;-68
2024/04/19 02:21:49;;;;;;;16.52;2.90;;;;;;;-146.27;93.20;42329.47;5451815;26;20005;-68
2024/04/19 02:24:15;;;;;;;6.35;2.60;;;;;;;-146.27;93.65;42355.31;5449518;26;20462;-68
2024/04/19 02:26:40;;;;;;;11.95;2.63;;;;;;;-146.27;93.99;42291.66;5462937;26;19994;-67
2024/04/19 02:31:50;;;;;;;4.35;2.53;;;;;;;-146.27;94.24;42295.66;5449224;26;20470;-68
2024/04/19 02:34:16;;;;;;;9.82;3.25;;;;;;;-146.27;94.56;42297.63;5460257;26;20003;-68
2024/04/19 02:36:41;;;;;;;12.38;3.20;;;;;;;-146.27;94.30;42230.03;5449625;26;20382;-68
2024/04/19 02:39:07;;;;;;;6.20;3.33;;;;;;;-146.27;94.86;42265.81;5451024;26;20003;-67
2024/04/19 02:41:33;;;;;;;10.35;3.40;;;;;;;-146.27;94.31;42186.28;5465600;26;19995;-68
2024/04/19 02:43:58;;;;;;;7.10;3.70;;;;;;;-146.27;94.97;42255.88;5449395;26;20052;-66
2024/04/19 02:46:25;;;;;;;15.02;4.35;;;;;;;-146.27;95.26;42247.91;5453509;26;20002;-68
2024/04/19 02:48:51;;;;;;;11.70;4.60;;;;;;;-146.27;94.75;42182.28;5451816;26;20507;-69
2024/04/19 02:51:17;;;;;;;8.75;5.20;;;;;;;-146.27;94.60;42134.56;5459817;26;20002;-68
2024/04/19 02:53:42;;;;;;;15.98;6.90;;;;;;;-146.27;94.75;42162.41;5451248;26;20054;-68
2024/04/19 02:56:08;;;;;;;14.43;6.38;;;;;;;-146.27;95.07;42116.66;5449078;26;20341;-69
2024/04/19 02:58:33;;;;;;;17.10;6.85;;;;;;;-146.27;94.88;42108.72;5449315;26;20096;-69
2024/04/19 03:00:59;;;;;;;15.10;6.78;;;;;;;-146.27;95.39;42122.63;5449534;26;20035;-69
2024/04/19 03:03:24;;;;;;;11.07;6.45;;;;;;;-146.27;95.21;42106.72;5456787;26;20013;-71
2024/04/19 03:05:53;;;;;;;16.17;6.55;;;;;;;-146.27;94.51;42055.03;5453839;26;19995;-71
2024/04/19 03:08:19;;;;;;;13.50;6.93;;;;;;;-146.27;94.75;42068.94;5478651;26;20014;-71
2024/04/19 03:10:44;;;;;;;19.45;6.88;;;;;;;-146.27;94.94;42059.00;5454975;26;20059;-70
2024/04/19 03:13:10;;;;;;;15.82;7.32;;;;;;;-146.27;95.53;42076.91;5457329;26;19998;-72
2024/04/19 03:15:39;;;;;;;13.27;7.90;;;;;;;-146.27;95.79;42023.22;5461396;26;20048;-73
2024/04/19 03:18:05;;;;;;;22.40;8.00;;;;;;;-146.27;95.56;42025.19;5449176;26;19995;-71
2024/04/19 03:20:30;;;;;;;14.00;7.75;;;;;;;-146.27;95.18;42031.16;5448231;26;20007;-72
2024/04/19 03:22:56;;;;;;;18.48;8.25;;;;;;;-146.27;94.62;41963.56;5449420;26;20083;-72
2024/04/19 03:25:21;;;;;;;25.52;8.30;;;;;;;-146.27;95.13;41977.47;5447953;26;20027;-74
2024/04/19 03:27:49;;;;;;;16.30;9.18;;;;;;;-146.27;95.31;42043.09;5448158;26;20009;-73
2024/04/19 03:30:33;;;;;;;24.95;8.88;;;;;;;-146.27;95.73;41983.44;5449422;26;20501;-72
2024/04/19 03:32:59;;;;;;;21.02;8.35;;;;;;;-146.27;95.04;41927.75;5448381;26;20338;-71
2024/04/19 03:35:25;;;;;;;22.48;9.13;;;;;;;-146.27;95.28;41927.75;5460874;26;20007;-71
2024/04/19 03:37:50;;;;;;;26.88;9.25;;;;;;;-146.27;94.96;41981.44;5448561;26;20452;-72
2024/04/19 03:40:15;;;;;;;25.02;8.85;;;;;;;-146.27;96.03;41945.66;5448244;26;19998;-73
2024/04/19 03:42:46;;;;;;;20.90;7.57;;;;;;;-146.27;95.55;41923.78;5448525;26;20026;-72
2024/04/19 03:47:56;;;;;;;18.33;8.60;;;;;;;-146.27;95.63;41923.78;5448407;26;20013;-71
2024/04/19 03:50:21;;;;;;;24.02;8.48;;;;;;;-146.27;95.91;41903.91;5449327;26;20357;-73
2024/04/19 03:52:47;;;;;;;18.90;8.32;;;;;;;-146.27;96.06;41903.91;5465952;26;20006;-72
2024/04/19 03:55:12;;;;;;;24.50;8.80;;;;;;;-146.27;95.29;41860.16;5447944;26;19998;-71
2024/04/19 03:57:37;;;;;;;24.88;7.93;;;;;;;-146.27;95.69;41919.81;5446869;26;20017;-73
2024/04/19 04:00:04;;;;;;;25.08;8.73;;;;;;;-146.27;95.66;41876.06;5456837;26;20002;-73
2024/04/19 04:02:29;;;;;;;23.42;7.65;;;;;;;-146.27;95.04;41860.16;5462000;26;19999;-72
2024/04/19 04:04:54;;;;;;;19.30;7.85;;;;;;;-146.27;94.80;41872.09;5467331;26;20069;-71
2024/04/19 04:07:20;;;;;;;20.67;8.02;;;;;;;-146.27;95.11;41888.00;5454187;26;19999;-72
2024/04/19 04:09:46;;;;;;;21.88;7.20;;;;;;;-146.27;95.47;41888.00;5448744;26;19998;-73
2024/04/19 04:12:11;;;;;;;23.20;7.25;;;;;;;-146.27;95.05;41840.28;5448503;26;20003;-72
2024/04/19 04:14:36;;;;;;;17.27;7.65;;;;;;;-146.27;95.67;41862.16;5448723;26;20059;-72
2024/04/19 04:17:02;;;;;;;19.40;8.75;;;;;;;-146.27;95.35;41824.38;5511051;26;20004;-72
2024/04/19 04:19:27;;;;;;;15.48;8.02;;;;;;;-146.27;95.12;41820.38;5448509;25;19999;-72
2024/04/19 04:21:53;;;;;;;23.83;7.55;;;;;;;-146.27;95.14;41806.47;5459758;26;20009;-72
2024/04/19 04:24:18;;;;;;;23.85;7.60;;;;;;;-146.27;95.46;41784.59;5466944;26;20446;-71
2024/04/19 04:26:43;;;;;;;14.32;6.18;;;;;;;-146.27;95.95;41828.34;5480549;26;20002;-72
2024/04/19 04:29:09;;;;;;;17.70;6.40;;;;;;;-146.27;95.38;41826.34;5469455;26;20015;-71
2024/04/19 04:31:35;;;;;;;15.85;6.40;;;;;;;-146.27;95.61;41810.44;5455248;26;20011;-72
2024/04/19 04:34:00;;;;;;;25.33;7.40;;;;;;;-146.27;95.98;41860.16;5467505;26;19998;-71
2024/04/19 04:36:25;;;;;;;24.77;7.15;;;;;;;-146.27;95.12;41788.56;5463757;26;20026;-72
2024/04/19 04:38:51;;;;;;;25.38;7.50;;;;;;;-146.27;94.93;41804.47;5450867;26;20011;-72
2024/04/19 04:41:17;;;;;;;26.88;6.53;;;;;;;-146.27;94.97;41768.69;5459544;26;20003;-70
2024/04/19 04:43:42;;;;;;;24.48;6.20;;;;;;;-146.27;94.46;41780.63;5468805;26;20004;-72
2024/04/19 04:46:07;;;;;;;20.40;6.00;;;;;;;-146.27;94.67;41820.38;5451326;26;20443;-73
2024/04/19 04:48:33;;;;;;;16.33;5.90;;;;;;;-146.27;94.74;41828.34;5447497;26;20101;-71
2024/04/19 04:50:59;;;;;;;19.52;6.15;;;;;;;-146.27;94.47;41780.63;5450579;26;20069;-71
2024/04/19 04:53:25;;;;;;;26.52;6.78;;;;;;;-146.27;94.46;41762.72;5485293;26;19999;-72
2024/04/19 04:55:52;;;;;;;24.08;6.63;;;;;;;-146.27;94.19;41804.47;5446903;26;20169;-72
2024/04/19 04:58:17;;;;;;;18.33;5.60;;;;;;;-146.27;94.29;41776.63;5449207;26;19995;-71
2024/04/19 05:00:43;;;;;;;23.75;6.80;;;;;;;-146.27;94.03;41792.56;5452006;26;19998;-71
2024/04/19 05:03:09;;;;;;;11.95;4.75;;;;;;;-146.27;94.11;41832.31;5447632;26;20006;-72
2024/04/19 05:05:34;;;;;;;10.82;4.60;;;;;;;-146.27;94.76;41895.94;5466650;26;20012;-73
2024/04/19 05:08:00;;;;;;;10.60;4.03;;;;;;;-146.27;94.42;41880.03;5466407;26;20426;-72
2024/04/19 05:10:25;;;;;;;20.25;5.28;;;;;;;-146.27;94.46;41901.91;5463278;26;20005;-71
2024/04/19 05:12:50;;;;;;;8.13;3.92;;;;;;;-146.27;94.43;41935.72;5462148;26;19990;-71
2024/04/19 05:15:16;;;;;;;23.08;4.70;;;;;;;-146.27;94.70;41975.50;5476029;26;20057;-72
2024/04/19 05:17:43;;;;;;;16.05;4.80;;;;;;;-146.27;94.45;42005.31;5461584;26;19999;-71
2024/04/19 05:20:09;;;;;;;20.58;6.05;;;;;;;-146.27;94.25;42090.81;5449906;26;20142;-72
2024/04/19 05:22:37;;;;;;;15.80;3.95;;;;;;;-146.27;93.93;42059.00;5486009;26;20006;-72
2024/04/19 05:25:07;;;;;;;20.27;3.92;;;;;;;-146.27;93.53;42066.97;5473346;26;20052;-70
2024/04/19 05:27:32;;;;;;;21.50;3.85;;;;;;;-146.27;93.97;42150.47;5483745;26;20009;-72
2024/04/19 05:29:57;;;;;;;16.08;3.45;;;;;;;-146.27;93.97;42138.53;5475244;26;20482;-73
2024/04/19 05:32:23;;;;;;;15.93;4.00;;;;;;;-146.27;94.74;42146.50;5474145;26;19999;-73
2024/04/19 05:34:48;;;;;;;16.17;3.72;;;;;;;-146.27;94.72;42146.50;5479490;26;20764;-74
2024/04/19 05:37:14;;;;;;;15.82;3.95;;;;;;;-146.27;94.23;42224.06;5453543;26;20729;-72
2024/04/19 05:39:39;;;;;;;14.88;3.67;;;;;;;-146.27;93.77;42279.75;5450188;26;20003;-72
2024/04/19 05:42:05;;;;;;;21.60;5.07;;;;;;;-146.27;94.21;42393.09;5482301;26;20341;-74
2024/04/19 05:44:33;;;;;;;15.80;3.80;;;;;;;-146.27;93.57;42458.72;5457551;26;20010;-72
2024/04/19 05:46:58;;;;;;;26.30;4.05;;;;;;;-146.27;93.88;42506.44;5450212;26;20373;-72
2024/04/19 05:49:24;;;;;;;17.90;3.47;;;;;;;-146.27;94.03;42550.22;5463234;26;20015;-72
2024/04/19 05:51:50;;;;;;;17.48;3.17;;;;;;;-146.27;93.71;42560.16;5463988;26;20738;-71
2024/04/19 05:54:15;;;;;;;21.35;3.97;;;;;;;-146.27;93.09;42580.03;5480500;26;20001;-73
2024/04/19 05:56:40;;;;;;;18.65;4.55;;;;;;;-146.27;92.89;42540.25;5454731;26;19994;-72
2024/04/19 05:59:06;;;;;;;21.60;4.25;;;;;;;-146.27;93.22;42588.00;5462748;26;20025;-72
2024/04/19 06:01:31;;;;;;;23.67;3.97;;;;;;;-146.27;93.30;42589.97;5452365;26;20124;-71
2024/04/19 06:03:57;;;;;;;18.92;3.20;;;;;;;-146.27;93.84;42653.63;5463001;26;20005;-72
2024/04/19 06:06:23;;;;;;;18.08;3.75;;;;;;;-146.27;94.17;42657.59;5486430;26;19990;-73
2024/04/19 06:08:49;;;;;;;16.17;3.08;;;;;;;-146.27;93.79;42735.16;5469009;26;20020;-72
2024/04/19 06:11:14;;;;;;;26.20;3.33;;;;;;;-146.27;93.26;42731.19;5455872;26;20339;-72
2024/04/19 06:13:39;;;;;;;21.23;4.10;;;;;;;-146.27;93.43;42761.03;5470584;26;20026;-72
2024/04/19 06:16:05;;;;;;;22.85;3.38;;;;;;;-146.27;93.41;42731.19;5466079;26;20062;-72
2024/04/19 06:18:31;;;;;;;17.23;3.92;;;;;;;-146.27;93.04;42796.81;5456780;26;20560;-72
2024/04/19 06:20:56;;;;;;;21.42;3.40;;;;;;;-146.27;92.65;42782.91;5464603;26;20009;-72
2024/04/19 06:23:21;;;;;;;16.83;3.97;;;;;;;-146.27;92.65;42784.88;5462940;26;20021;-73
2024/04/19 06:25:47;;;;;;;14.52;3.35;;;;;;;-146.27;92.66;42820.69;5454340;26;19991;-71
2024/04/19 06:28:13;;;;;;;21.25;4.35;;;;;;;-146.27;92.35;42806.75;5475478;26;20553;-72
2024/04/19 06:30:38;;;;;;;28.23;3.63;;;;;;;-146.27;92.66;42820.69;5485500;26;19994;-72
2024/04/19 06:33:03;;;;;;;8.68;2.72;;;;;;;-146.27;92.39;42776.94;5454518;26;20014;-71
2024/04/19 06:35:29;;;;;;;19.92;3.30;;;;;;;-146.27;92.04;42727.22;5483253;26;19998;-72
2024/04/19 06:37:54;;;;;;;21.73;4.18;;;;;;;-146.27;92.34;42677.50;5469437;26;19999;-72
2024/04/19 06:40:19;;;;;;;9.48;1.98;;;;;;;-146.27;91.63;42826.66;5458650;26;20526;-72
2024/04/19 06:42:45;;;;;;;13.38;2.47;;;;;;;-146.27;91.78;42834.59;5451627;26;20419;-72
2024/04/19 06:45:10;;;;;;;12.27;2.65;;;;;;;-146.27;93.19;42904.22;5475146;26;19994;-72
2024/04/19 06:47:37;;;;;;;20.42;3.33;;;;;;;-146.27;93.21;42898.25;5485917;26;20073;-74
2024/04/19 06:50:02;;;;;;;14.68;2.83;;;;;;;-146.27;93.49;42965.88;5476085;26;20017;-73
2024/04/19 06:52:27;;;;;;;18.73;2.50;;;;;;;-146.27;93.19;42918.16;5478115;26;20458;-73
2024/04/19 06:54:53;;;;;;;13.25;2.35;;;;;;;-146.27;92.97;42965.88;5484917;26;19998;-73
2024/04/19 06:57:18;;;;;;;16.33;2.75;;;;;;;-146.27;93.82;43041.47;5485640;26;19994;-73
2024/04/19 06:59:44;;;;;;;13.15;2.83;;;;;;;-146.27;93.54;43009.63;5478553;26;20006;-73
2024/04/19 07:02:10;;;;;;;19.70;3.28;;;;;;;-146.27;93.63;43005.66;5473839;26;20009;-73
2024/04/19 07:04:35;;;;;;;20.80;2.75;;;;;;;-146.27;93.41;43029.53;5472693;26;19995;-72
2024/04/19 07:07:01;;;;;;;18.67;2.78;;;;;;;-146.27;94.00;43041.47;5473946;26;20056;-72
2024/04/19 07:09:26;;;;;;;17.80;3.10;;;;;;;-146.27;93.33;43035.50;5479507;26;20150;-74
2024/04/19 07:11:51;;;;;;;17.17;2.40;;;;;;;-146.27;92.86;42961.91;5467054;26;20006;-73
2024/04/19 07:14:17;;;;;;;16.08;2.88;;;;;;;-146.27;92.04;42926.09;5464676;26;20601;-72
2024/04/19 07:16:43;;;;;;;13.57;2.33;;;;;;;-146.27;92.40;42961.91;5481638;26;19994;-72
2024/04/19 07:19:08;;;;;;;14.25;2.65;;;;;;;-146.27;91.59;42894.28;5471914;26;19994;-72
2024/04/19 07:21:34;;;;;;;12.75;2.28;;;;;;;-146.27;92.29;42870.41;5483942;26;20095;-73
2024/04/19 07:23:59;;;;;;;4.28;1.10;;;;;;;-146.27;91.56;43021.56;5483251;26;20002;-74
2024/04/19 07:26:24;;;;;;;5.22;0.95;;;;;;;-146.27;90.15;43053.41;5457609;26;20461;-72
2024/04/19 07:28:50;;;;;;;6.20;1.40;;;;;;;-146.27;89.82;43134.94;5483810;26;20009;-74
2024/04/19 07:31:15;;;;;;;8.00;1.48;;;;;;;-146.27;90.66;43176.72;5483943;26;19998;-74
2024/04/19 07:33:41;;;;;;;13.43;2.15;;;;;;;-146.27;92.36;43091.19;5470256;26;20009;-75
2024/04/19 07:36:07;;;;;;;9.77;1.67;;;;;;;-146.27;92.41;43017.59;5485349;26;20454;-75
2024/04/19 07:38:35;;;;;;;8.65;1.70;;;;;;;-146.27;91.78;43013.63;5481295;26;20430;-73
2024/04/19 07:41:04;;;;;;;6.80;1.58;;;;;;;-146.27;91.44;43097.16;5452453;26;20407;-74
2024/04/19 07:43:30;;;;;;;8.35;1.13;;;;;;;-146.27;91.26;43204.56;5462089;26;20002;-74
2024/04/19 07:45:55;;;;;;;7.07;1.80;;;;;;;-146.27;91.34;43184.69;5483933;26;20012;-72
2024/04/19 07:48:21;;;;;;;12.48;2.53;;;;;;;-146.27;90.90;43113.06;5482022;26;19994;-72
2024/04/19 07:50:46;;;;;;;13.93;2.08;;;;;;;-146.27;91.47;43186.66;5485053;26;20078;-72
2024/04/19 07:53:12;;;;;;;15.77;2.50;;;;;;;-146.27;91.74;43176.72;5461766;26;19990;-74
2024/04/19 07:55:40;;;;;;;11.77;2.13;;;;;;;-146.27;92.01;43196.63;5485140;26;20500;-74
2024/04/19 07:58:06;;;;;;;15.45;2.60;;;;;;;-146.27;92.31;43156.84;5484134;26;20462;-73
2024/04/19 08:00:31;;;;;;;9.20;2.72;;;;;;;-146.27;92.08;43121.03;5478080;26;19994;-72
2024/04/19 08:02:57;;;;;;;23.70;2.90;;;;;;;-146.27;91.87;43063.34;5472626;26;20507;-74
2024/04/19 08:05:23;;;;;;;13.68;2.10;;;;;;;-146.27;91.48;43057.38;5484671;26;19991;-72
2024/04/19 08:07:52;;;;;;;14.48;2.30;;;;;;;-146.27;90.77;43089.19;5484546;26;19990;-74
2024/04/19 08:10:17;;;;;;;15.23;2.10;;;;;;;-146.27;91.27;43005.66;5484735;26;20331;-73
2024/04/19 08:12:46;;;;;;;16.30;2.30;;;;;;;-146.27;90.24;43051.41;5482979;26;20009;-75
2024/04/19 08:15:12;;;;;;;16.63;2.05;;;;;;;-146.27;90.23;43093.19;5459147;26;20005;-72
2024/04/19 08:17:40;;;;;;;8.95;2.30;;;;;;;-146.27;89.51;43107.09;5481405;26;20004;-71
2024/04/19 08:20:06;;;;;;;12.52;2.33;;;;;;;-146.27;89.43;43121.03;5484885;26;20063;-73
2024/04/19 08:22:32;;;;;;;9.63;1.70;;;;;;;-146.27;88.64;43089.19;5472202;26;20010;-71
2024/04/19 08:24:57;;;;;;;15.82;2.17;;;;;;;-146.27;88.68;43045.44;5454844;26;20100;-73
2024/04/19 08:27:24;;;;;;;11.93;1.88;;;;;;;-146.27;88.62;43039.47;5484504;26;20008;-73
2024/04/19 08:29:49;;;;;;;15.60;2.00;;;;;;;-146.27;88.31;43073.28;5466215;26;20002;-73
2024/04/19 08:32:14;;;;;;;14.48;2.03;;;;;;;-146.27;88.55;43079.25;5472364;26;20006;-73
2024/04/19 08:34:40;;;;;;;12.95;2.20;;;;;;;-146.27;89.06;43089.19;5483781;26;19994;-72
2024/04/19 08:37:06;;;;;;;16.75;1.95;;;;;;;-146.27;89.18;43101.13;5474434;26;19994;-75
2024/04/19 08:39:31;;;;;;;10.30;2.08;;;;;;;-146.27;89.36;43150.88;5484391;26;20001;-73
2024/04/19 08:42:05;;;;;;;9.93;2.08;;;;;;;-146.27;89.89;43180.69;5469237;26;20002;-73
2024/04/19 08:44:31;;;;;;;16.13;2.47;;;;;;;-146.27;89.16;43186.66;5483212;26;19994;-72
2024/04/19 08:46:57;;;;;;;10.85;1.70;;;;;;;-146.27;89.72;43156.84;5477885;26;19998;-73
2024/04/19 08:49:24;;;;;;;21.27;2.40;;;;;;;-146.27;89.70;43136.94;5487534;26;19994;-72
2024/04/19 08:51:51;;;;;;;13.77;1.73;;;;;;;-146.27;90.96;43208.56;5472549;26;20010;-72
2024/04/19 08:54:17;;;;;;;18.80;2.28;;;;;;;-146.27;90.59;43073.28;5481080;26;20002;-75
2024/04/19 08:56:44;;;;;;;22.92;2.70;;;;;;;-146.27;90.01;43111.09;5486086;26;20010;-73
2024/04/19 08:59:09;;;;;;;12.35;2.08;;;;;;;-146.27;90.15;43075.28;5487836;26;20514;-73
2024/04/19 09:01:36;;;;;;;15.05;2.58;;;;;;;-146.27;89.90;42942.00;5473771;26;20002;-73
2024/04/19 09:04:01;;;;;;;16.38;1.92;;;;;;;-146.27;89.69;42977.81;5473483;26;20012;-75
2024/04/19 09:06:28;;;;;;;14.63;3.80;;;;;;;-146.27;89.80;43128.97;5485916;26;20006;-73
2024/04/19 09:08:54;;;;;;;26.00;3.50;;;;;;;-146.27;90.01;43117.06;5487104;26;20006;-73
2024/04/19 09:11:21;;;;;;;20.92;2.78;;;;;;;-146.27;89.77;43132.97;5480765;26;20010;-74
2024/04/19 09:13:47;;;;;;;12.73;2.40;;;;;;;-146.27;89.51;42995.72;5479584;26;19994;-74
2024/04/19 09:16:12;;;;;;;12.05;3.90;;;;;;;-146.27;89.20;43005.66;5474337;26;20522;-72
2024/04/19 09:18:38;;;;;;;13.38;2.25;;;;;;;-146.27;88.99;43069.31;5486845;26;20084;-75
2024/04/19 09:21:04;;;;;;;15.68;2.10;;;;;;;-146.27;88.51;43001.69;5486293;26;20346;-73
2024/04/19 09:23:29;;;;;;;12.93;2.10;;;;;;;-146.27;87.89;43093.19;5465248;26;20017;-73
2024/04/19 09:25:56;;;;;;;14.70;2.20;;;;;;;-146.27;88.10;43033.50;5481780;26;20002;-72
2024/04/19 09:28:22;;;;;;;14.50;2.15;;;;;;;-146.27;86.63;43144.91;5479194;26;20027;-73
2024/04/19 09:30:52;;;;;;;14.32;2.17;;;;;;;-146.27;86.29;43005.66;5486906;26;20422;-72
2024/04/19 09:33:18;;;;;;;11.98;1.95;;;;;;;-146.27;86.04;42967.88;5461444;26;20445;-73
2024/04/19 09:35:44;;;;;;;15.95;2.50;;;;;;;-146.27;86.02;43039.47;5486893;26;20002;-72
2024/04/19 09:38:10;;;;;;;13.80;2.92;;;;;;;-146.27;85.07;43091.19;5485693;26;20060;-71
2024/04/19 09:40:36;;;;;;;13.40;3.08;;;;;;;-146.27;84.67;43136.94;5485319;26;20458;-72
2024/04/19 09:43:06;;;;;;;9.52;2.25;;;;;;;-146.27;83.49;43252.31;5486037;26;20009;-72
2024/04/19 09:45:41;;;;;;;23.52;2.42;;;;;;;-146.27;82.84;43266.22;5473617;26;20452;-72
2024/04/19 09:48:09;;;;;;;18.45;2.47;;;;;;;-146.27;83.25;43200.59;5485908;26;19994;-72
2024/04/19 09:50:39;;;;;;;11.70;2.33;;;;;;;-146.27;84.20;43196.63;5486624;26;19998;-72
2024/04/19 09:53:09;;;;;;;14.45;2.65;;;;;;;-146.27;83.87;43232.41;5486882;26;20002;-71
2024/04/19 09:56:00;;;;;;;12.30;2.25;;;;;;;-146.27;83.88;43244.34;5482829;26;20002;-72
2024/04/19 09:58:28;;;;;;;9.38;2.28;;;;;;;-146.27;82.58;43399.50;5428944;26;20019;-72
2024/04/19 10:00:56;;;;;;;15.07;1.75;;;;;;;-146.27;82.62;43479.06;5483830;26;20006;-70
2024/04/19 10:03:22;;;;;;;13.55;2.28;;;;;;;-146.27;83.20;43417.41;5487005;26;20109;-71
2024/04/19 10:05:48;;;;;;;13.70;1.90;;;;;;;-146.27;82.83;43439.28;5486731;26;19998;-72
2024/04/19 10:08:15;;;;;;;10.38;3.08;;;;;;;-146.27;82.58;43415.41;5464420;26;20023;-71
2024/04/19 10:10:41;;;;;;;16.58;2.45;;;;;;;-146.27;81.57;43479.06;5473054;26;20005;-71
2024/04/19 10:13:07;;;;;;;13.05;2.28;;;;;;;-146.27;80.94;43570.59;5472686;26;20485;-75
2024/04/19 10:15:33;;;;;;;16.83;3.28;;;;;;;-146.27;81.93;43491.00;5482685;26;20006;-71
2024/04/19 10:18:02;;;;;;;16.45;2.13;;;;;;;-146.27;81.68;43536.75;5485616;26;20453;-72
2024/04/19 10:20:28;;;;;;;21.25;2.28;;;;;;;-146.27;81.52;43510.91;5485510;26;20009;-71
2024/04/19 10:22:53;;;;;;;14.45;1.70;;;;;;;-146.27;80.83;43504.94;5486377;26;20002;-72
2024/04/19 10:25:24;;;;;;;21.13;2.35;;;;;;;-146.27;79.97;43614.34;5483431;26;19998;-73
2024/04/19 10:27:52;;;;;;;21.40;2.55;;;;;;;-146.27;79.93;43500.97;5480041;26;20442;-71
2024/04/19 10:30:18;;;;;;;9.88;2.25;;;;;;;-146.27;80.14;43548.69;5479332;26;20013;-72
2024/04/19 10:32:53;;;;;;;9.85;2.15;;;;;;;-146.27;80.24;43699.88;5481363;26;20002;-72
2024/04/19 10:35:21;;;;;;;17.35;2.42;;;;;;;-146.27;80.62;43761.56;5484108;26;20005;-71
2024/04/19 10:37:46;;;;;;;19.27;2.20;;;;;;;-146.27;80.47;43747.63;5484420;26;19995;-71
2024/04/19 10:40:14;;;;;;;16.17;2.55;;;;;;;-146.27;79.86;43672.03;5482489;26;20037;-71
2024/04/19 10:42:39;;;;;;;18.63;2.70;;;;;;;-146.27;80.62;43530.81;5462215;26;20025;-71
2024/04/19 10:45:13;;;;;;;14.23;2.58;;;;;;;-146.27;79.36;43534.78;5452361;26;20670;-71
2024/04/19 10:47:42;;;;;;;24.58;2.88;;;;;;;-146.27;78.49;43518.88;5452071;26;20330;-71
2024/04/19 10:50:08;;;;;;;12.32;2.28;;;;;;;-146.27;77.26;43775.50;5473494;26;20414;-71
2024/04/19 10:52:34;;;;;;;12.45;2.00;;;;;;;-146.27;76.07;43769.53;5485712;26;19998;-70
2024/04/19 10:55:00;;;;;;;14.32;2.47;;;;;;;-146.27;76.81;43747.63;5459827;26;20001;-69
2024/04/19 10:57:29;;;;;;;7.85;1.40;;;;;;;-146.27;75.04;44131.59;5479304;26;19998;-70
2024/04/19 10:59:55;;;;;;;13.00;1.92;;;;;;;-146.27;76.74;44044.06;5468276;26;20455;-71
2024/04/19 11:02:22;;;;;;;12.55;2.00;;;;;;;-146.27;75.77;44026.16;5476386;26;19998;-71
2024/04/19 11:04:48;;;;;;;8.82;1.60;;;;;;;-146.27;74.83;44087.84;5484158;26;20006;-71
2024/04/19 11:07:13;;;;;;;9.13;1.60;;;;;;;-146.27;76.93;43888.88;5485606;26;20005;-70
2024/04/19 11:09:39;;;;;;;8.00;1.75;;;;;;;-146.27;75.96;44079.88;5480248;26;20093;-71
2024/04/19 11:12:05;;;;;;;9.77;2.20;;;;;;;-146.27;75.02;44173.38;5475756;26;20009;-68